Hauptseite
METAR-TAF:

METAR-TAF

Flughäfen :

Lübeck, Deutschland

Flughafen Lübeck

Breite: 53-49N, Länge: 010-42E, Höhe: 14 m

Beobachtung

Neuester Wetterbericht von vor 18 Minuten, um 11:20 UTC
Wind 5 kt aus Nordwest, variierte zwischen Südwest und Nord/Nordost
Temperatur 10°C
Luftfeuchtigkeit 62%
Luftdruck 1030 hPa
Sichtweite 10 km oder mehr
Leicht bewölkt in der Höhe von 3000 ft

METAR: EDHL 251120Z 32005KT 230V030 9999 FEW030 10/03 Q1030

Zeit: 12:38 (11:38 UTC)

Prognose

Neuester Wetterbericht von vor 38 Minuten, um 11:00 UTC
Gültige Prognose vom 25 um 12 UTC bis 25 um 21 UTC
Wind 6 kt aus Nordwest
Sichtweite 10 km oder mehr
keine Wolken unter 1500 m und keine Kumulonimbus oder Gewitterwolken

TAF: EDHL 251100Z 2512/2521 32006KT CAVOK

Wetterbeobachtungen und Prognosen von mehr als 4000 Flughäfen (METAR und TAF Bericht).

Die verfügbaren Stationen werden durch gelbe und rote Markierungen auf der Karte dargestellt.

Führen Sie die Maus auf sie, um den Namen der Station zu sehen.

Darauf klicken, um die Beobachtung von Wetterbeobachtungen und Prognosen zu sehen.

Um die Karte zu ändern : klicken Sie auf den grünen Tasten mit einem schwarzen Kreuz Zum Vergrößern, auf den grünen Button mit einem Gedankenstrich zu verkleinern, oder auf die grünen Pfeile für benachbarte Karten.


METAR-TAF: